createdAt,value
2022-10-26T00:00:25.769Z,0.00
2022-10-26T00:01:26.010Z,0.00
2022-10-26T00:02:26.131Z,0.00
2022-10-26T00:03:26.223Z,0.00
2022-10-26T00:04:26.377Z,0.00
2022-10-26T00:05:26.530Z,0.00
2022-10-26T00:06:26.666Z,0.00
2022-10-26T00:07:26.922Z,0.00
2022-10-26T00:08:26.976Z,0.00
2022-10-26T00:09:27.116Z,0.00
2022-10-26T00:10:29.540Z,0.00
2022-10-26T00:11:27.441Z,0.00
2022-10-26T00:12:27.604Z,0.00
2022-10-26T00:13:27.764Z,0.00
2022-10-26T00:14:27.885Z,0.00
2022-10-26T00:15:28.011Z,0.00
2022-10-26T00:16:28.144Z,0.00
2022-10-26T00:17:28.333Z,0.00
2022-10-26T00:18:28.459Z,0.00
2022-10-26T00:19:28.584Z,0.00
2022-10-26T00:20:28.756Z,0.00
2022-10-26T00:21:28.885Z,0.00
2022-10-26T00:22:29.023Z,0.00
2022-10-26T00:23:29.175Z,0.00
2022-10-26T00:24:29.307Z,0.00
2022-10-26T00:25:29.461Z,0.00
2022-10-26T00:26:29.589Z,0.00
2022-10-26T00:27:29.714Z,0.00
2022-10-26T00:28:29.877Z,0.00
2022-10-26T00:29:30.019Z,0.00
2022-10-26T00:30:30.092Z,0.00
2022-10-26T00:31:30.221Z,0.00
2022-10-26T00:32:30.399Z,0.00
2022-10-26T00:33:30.481Z,0.00
2022-10-26T00:34:30.669Z,0.00
2022-10-26T00:35:45.128Z,0.00
2022-10-26T00:36:31.962Z,0.00
2022-10-26T00:37:31.082Z,0.00
2022-10-26T00:38:31.228Z,0.00
2022-10-26T00:39:31.368Z,0.00
2022-10-26T00:40:31.469Z,0.00
2022-10-26T00:41:31.601Z,0.00
2022-10-26T00:42:31.723Z,0.00
2022-10-26T00:43:31.850Z,0.00
2022-10-26T00:44:36.056Z,0.00
2022-10-26T00:45:32.077Z,0.00
2022-10-26T00:46:32.203Z,0.00
2022-10-26T00:47:32.363Z,0.00
2022-10-26T00:48:32.429Z,0.00
2022-10-26T00:49:32.582Z,0.00
2022-10-26T00:50:32.723Z,0.00
2022-10-26T00:51:32.975Z,0.00
2022-10-26T00:52:33.010Z,0.00
2022-10-26T00:53:33.139Z,0.00
2022-10-26T00:54:33.272Z,0.00
2022-10-26T00:55:33.455Z,0.00
2022-10-26T00:56:33.579Z,0.00
2022-10-26T00:57:33.736Z,0.00
2022-10-26T00:58:33.824Z,0.00
2022-10-26T00:59:33.962Z,0.00
2022-10-26T01:00:34.105Z,0.00
2022-10-26T01:01:34.265Z,0.00
2022-10-26T01:02:34.340Z,0.00
2022-10-26T01:03:34.493Z,0.00
2022-10-26T01:04:34.635Z,0.00
2022-10-26T01:05:34.823Z,0.00
2022-10-26T01:06:34.961Z,0.00
2022-10-26T01:07:35.090Z,0.00
2022-10-26T01:08:35.239Z,0.00
2022-10-26T01:09:35.408Z,0.00
2022-10-26T01:10:35.478Z,0.00
2022-10-26T01:11:35.629Z,0.00
2022-10-26T01:12:35.782Z,0.00
2022-10-26T01:13:35.897Z,0.00
2022-10-26T01:14:36.048Z,0.00
2022-10-26T01:15:36.209Z,0.00
2022-10-26T01:16:38.395Z,0.00
2022-10-26T01:17:36.490Z,0.00
2022-10-26T01:18:36.631Z,0.00
2022-10-26T01:19:36.757Z,0.00
2022-10-26T01:20:36.946Z,0.00
2022-10-26T01:21:37.079Z,0.00
2022-10-26T01:22:37.205Z,0.00
2022-10-26T01:23:37.363Z,0.00
2022-10-26T01:24:37.490Z,0.00
2022-10-26T01:25:37.650Z,0.00
2022-10-26T01:26:37.861Z,0.00
2022-10-26T01:27:37.907Z,0.00
2022-10-26T01:28:38.059Z,0.00
2022-10-26T01:29:38.188Z,0.00
2022-10-26T01:30:38.345Z,0.00
2022-10-26T01:31:38.496Z,0.00
2022-10-26T01:32:38.631Z,0.00
2022-10-26T01:33:38.757Z,0.00
2022-10-26T01:34:38.917Z,0.00
2022-10-26T01:35:39.049Z,0.00
2022-10-26T01:36:39.170Z,0.00
2022-10-26T01:37:39.327Z,0.00
2022-10-26T01:38:39.449Z,0.00
2022-10-26T01:39:39.572Z,0.00
2022-10-26T01:40:39.706Z,0.00
2022-10-26T01:41:39.839Z,0.00
2022-10-26T01:42:39.996Z,0.00
2022-10-26T01:43:40.157Z,0.00
2022-10-26T01:44:40.280Z,0.00
2022-10-26T01:45:40.426Z,0.00
2022-10-26T01:46:40.557Z,0.00
2022-10-26T01:47:40.685Z,0.00
2022-10-26T01:48:40.847Z,0.00
2022-10-26T01:49:40.987Z,0.00
2022-10-26T01:50:41.074Z,0.00
2022-10-26T01:51:41.194Z,0.00
2022-10-26T01:52:41.315Z,0.00
2022-10-26T01:53:41.435Z,0.00
2022-10-26T01:54:41.577Z,0.00
2022-10-26T01:55:41.697Z,0.00
2022-10-26T01:56:41.817Z,0.00
2022-10-26T01:57:41.957Z,0.00
2022-10-26T01:58:42.071Z,0.00
2022-10-26T01:59:42.214Z,0.00
2022-10-26T02:00:42.316Z,0.00
2022-10-26T02:01:42.625Z,0.00
2022-10-26T02:02:42.595Z,0.00
2022-10-26T02:03:42.833Z,0.00
2022-10-26T02:04:42.865Z,0.00
2022-10-26T02:05:43.036Z,0.00
2022-10-26T02:06:43.165Z,0.00
2022-10-26T02:07:43.283Z,0.00
2022-10-26T02:08:43.445Z,0.00
2022-10-26T02:09:47.365Z,0.00
2022-10-26T02:10:43.686Z,0.00
2022-10-26T02:11:43.815Z,0.00
2022-10-26T02:12:43.932Z,0.00
2022-10-26T02:13:44.067Z,0.00
2022-10-26T02:14:44.180Z,0.00
2022-10-26T02:15:44.324Z,0.00
2022-10-26T02:16:44.464Z,0.00
2022-10-26T02:17:44.591Z,0.00
2022-10-26T02:18:44.735Z,0.00
2022-10-26T02:19:44.833Z,0.00
2022-10-26T02:20:44.993Z,0.00
2022-10-26T02:21:45.133Z,0.00
2022-10-26T02:22:45.280Z,0.00
2022-10-26T02:23:45.413Z,0.00
2022-10-26T02:24:45.565Z,0.00
2022-10-26T02:25:45.701Z,0.00
2022-10-26T02:26:45.862Z,0.00
2022-10-26T02:27:46.282Z,0.00
2022-10-26T02:28:46.149Z,0.00
2022-10-26T02:29:46.338Z,0.00
2022-10-26T02:30:46.423Z,0.00
2022-10-26T02:31:46.534Z,0.00
2022-10-26T02:32:46.641Z,0.00
2022-10-26T02:33:46.763Z,0.00
2022-10-26T02:34:46.842Z,0.00
2022-10-26T02:35:46.983Z,0.00
2022-10-26T02:36:47.141Z,0.00
2022-10-26T02:37:47.614Z,0.00
2022-10-26T02:38:47.435Z,0.00
2022-10-26T02:39:47.572Z,0.00
2022-10-26T02:40:47.702Z,0.00
2022-10-26T02:41:47.838Z,0.00
2022-10-26T02:42:48.013Z,0.00
2022-10-26T02:43:48.096Z,0.00
2022-10-26T02:44:48.187Z,0.00
2022-10-26T02:45:48.318Z,0.00
2022-10-26T02:46:48.523Z,0.00
2022-10-26T02:47:48.932Z,0.00
2022-10-26T02:48:48.751Z,0.00
2022-10-26T02:49:48.881Z,0.00
2022-10-26T02:50:49.011Z,0.00
2022-10-26T02:52:49.670Z,0.00
2022-10-26T02:53:49.396Z,0.00
2022-10-26T02:54:49.519Z,0.00
2022-10-26T02:55:49.667Z,0.00
2022-10-26T02:56:49.761Z,0.00
2022-10-26T02:57:49.922Z,0.00
2022-10-26T02:58:50.079Z,0.00
2022-10-26T02:59:50.188Z,0.00
2022-10-26T03:00:50.281Z,0.00
2022-10-26T03:01:50.467Z,0.00
2022-10-26T03:02:50.912Z,0.00
2022-10-26T03:03:50.660Z,0.00
2022-10-26T03:04:50.750Z,0.00
2022-10-26T03:05:50.889Z,0.00
2022-10-26T03:06:51.051Z,0.00
2022-10-26T03:07:51.181Z,0.00
2022-10-26T03:08:51.322Z,0.00
2022-10-26T03:09:51.461Z,0.00
2022-10-26T03:10:51.626Z,0.00
2022-10-26T03:11:51.761Z,0.00
2022-10-26T03:12:52.288Z,0.00
2022-10-26T03:13:52.008Z,0.00
2022-10-26T03:14:52.149Z,0.00
2022-10-26T03:15:52.286Z,0.00
2022-10-26T03:16:52.453Z,0.00
2022-10-26T03:17:52.735Z,0.00
2022-10-26T03:18:52.717Z,0.00
2022-10-26T03:19:52.825Z,0.00
2022-10-26T03:20:52.978Z,0.00
2022-10-26T03:21:53.117Z,0.00
2022-10-26T03:22:53.271Z,0.00
2022-10-26T03:23:53.387Z,0.00
2022-10-26T03:24:53.538Z,0.00
2022-10-26T03:25:53.699Z,0.00
2022-10-26T03:26:56.063Z,0.00
2022-10-26T03:27:54.009Z,0.00
2022-10-26T03:28:54.138Z,0.00
2022-10-26T03:29:54.310Z,0.00
2022-10-26T03:30:54.419Z,0.00
2022-10-26T03:31:54.555Z,0.00
2022-10-26T03:32:54.728Z,0.00
2022-10-26T03:33:54.878Z,0.00
2022-10-26T03:34:55.016Z,0.00
2022-10-26T03:35:55.156Z,0.00
2022-10-26T03:36:55.283Z,0.00
2022-10-26T03:37:55.422Z,0.00
2022-10-26T03:38:55.598Z,0.00
2022-10-26T03:39:55.697Z,0.00
2022-10-26T03:40:55.867Z,0.00
2022-10-26T03:41:56.085Z,0.00
2022-10-26T03:42:56.170Z,0.00
2022-10-26T03:43:56.337Z,0.00
2022-10-26T03:44:56.427Z,0.00
2022-10-26T03:45:56.568Z,0.00
2022-10-26T03:46:56.669Z,0.00
2022-10-26T03:47:56.819Z,0.00
2022-10-26T03:48:56.920Z,0.00
2022-10-26T03:49:57.075Z,0.00
2022-10-26T03:50:57.186Z,0.00
2022-10-26T03:51:57.347Z,0.00
2022-10-26T03:52:57.506Z,0.00
2022-10-26T03:53:57.606Z,0.00
2022-10-26T03:54:57.721Z,0.00
2022-10-26T03:55:57.845Z,0.00
2022-10-26T03:56:58.006Z,0.00
2022-10-26T03:57:58.146Z,0.00
2022-10-26T03:58:58.274Z,0.00
2022-10-26T03:59:58.407Z,0.00
2022-10-26T04:00:58.547Z,0.00
2022-10-26T04:01:58.736Z,0.00
2022-10-26T04:02:58.774Z,0.00
2022-10-26T04:03:58.971Z,0.00
2022-10-26T04:04:59.057Z,0.00
2022-10-26T04:05:59.203Z,0.00
2022-10-26T04:06:59.355Z,0.00
2022-10-26T04:07:59.466Z,0.00
2022-10-26T04:08:59.563Z,0.00
2022-10-26T04:09:59.716Z,0.00
2022-10-26T04:11:02.413Z,0.00
2022-10-26T04:11:59.923Z,0.00
2022-10-26T04:13:00.076Z,0.00
2022-10-26T04:14:00.163Z,0.00
2022-10-26T04:15:00.463Z,0.00
2022-10-26T04:16:00.530Z,0.00
2022-10-26T04:17:00.612Z,0.00
2022-10-26T04:18:00.704Z,0.00
2022-10-26T04:19:00.849Z,0.00
2022-10-26T04:20:00.967Z,0.00
2022-10-26T04:21:01.066Z,0.00
2022-10-26T04:22:01.204Z,0.00
2022-10-26T04:23:01.350Z,0.00
2022-10-26T04:24:01.507Z,0.00
2022-10-26T04:25:01.647Z,0.00
2022-10-26T04:26:01.764Z,0.00
2022-10-26T04:27:01.936Z,0.00
2022-10-26T04:28:02.093Z,0.00
2022-10-26T04:29:02.193Z,0.00
2022-10-26T04:30:02.304Z,0.00
2022-10-26T04:31:02.465Z,0.00
2022-10-26T04:32:02.554Z,0.00
2022-10-26T04:33:02.701Z,0.00
2022-10-26T04:34:02.852Z,0.00
2022-10-26T04:35:03.006Z,0.00
2022-10-26T04:36:03.144Z,0.00
2022-10-26T04:37:03.284Z,0.00
2022-10-26T04:38:03.422Z,0.00
2022-10-26T04:39:03.587Z,0.00
2022-10-26T04:40:03.780Z,0.00
2022-10-26T04:41:03.841Z,0.00
2022-10-26T04:42:03.973Z,0.00
2022-10-26T04:43:04.114Z,0.00
2022-10-26T04:44:04.284Z,0.00
2022-10-26T04:45:04.461Z,0.00
2022-10-26T04:46:04.509Z,0.00
2022-10-26T04:47:04.655Z,0.00
2022-10-26T04:48:04.785Z,0.00
2022-10-26T04:49:04.922Z,0.00
2022-10-26T04:50:05.104Z,0.00
2022-10-26T04:51:05.200Z,0.00
2022-10-26T04:52:05.332Z,0.00
2022-10-26T04:53:05.482Z,0.00
2022-10-26T04:54:05.609Z,0.00
2022-10-26T04:55:05.768Z,0.00
2022-10-26T04:56:07.376Z,0.00
2022-10-26T04:57:06.080Z,0.00
2022-10-26T04:58:06.173Z,0.00
2022-10-26T04:59:06.299Z,0.00
2022-10-26T05:00:06.492Z,0.00
2022-10-26T05:01:06.732Z,0.00
2022-10-26T05:02:06.791Z,0.00
2022-10-26T05:03:06.832Z,0.00
2022-10-26T05:04:06.959Z,0.00
2022-10-26T05:05:08.924Z,0.00
2022-10-26T05:06:07.220Z,0.00
2022-10-26T05:07:07.400Z,0.00
2022-10-26T05:08:07.494Z,0.00
2022-10-26T05:09:07.629Z,0.00
2022-10-26T05:10:07.795Z,0.00
2022-10-26T05:11:07.940Z,0.00
2022-10-26T05:12:08.036Z,0.00
2022-10-26T05:13:08.183Z,0.00
2022-10-26T05:14:08.281Z,0.00
2022-10-26T05:15:08.737Z,0.00
2022-10-26T05:16:08.560Z,0.00
2022-10-26T05:17:08.669Z,0.00
2022-10-26T05:18:08.764Z,0.00
2022-10-26T05:19:08.928Z,0.00
2022-10-26T05:20:09.017Z,0.00
2022-10-26T05:21:09.164Z,0.00
2022-10-26T05:22:09.270Z,0.00
2022-10-26T05:23:09.370Z,0.00
2022-10-26T05:24:11.680Z,0.00
2022-10-26T05:25:09.651Z,0.00
2022-10-26T05:26:10.479Z,0.00
2022-10-26T05:27:09.882Z,0.00
2022-10-26T05:28:10.054Z,0.00
2022-10-26T05:29:10.138Z,0.00
2022-10-26T05:30:10.346Z,0.00
2022-10-26T05:31:10.421Z,0.00
2022-10-26T05:32:10.538Z,0.00
2022-10-26T05:33:10.639Z,0.00
2022-10-26T05:34:10.758Z,0.00
2022-10-26T05:35:10.920Z,0.00
2022-10-26T05:36:11.075Z,0.00
2022-10-26T05:37:11.220Z,0.00
2022-10-26T05:38:11.380Z,0.00
2022-10-26T05:39:11.450Z,0.00
2022-10-26T05:40:11.600Z,0.00
2022-10-26T05:41:11.710Z,0.00
2022-10-26T05:42:11.874Z,0.00
2022-10-26T05:43:11.949Z,0.00
2022-10-26T05:44:12.101Z,0.00
2022-10-26T05:45:12.249Z,0.00
2022-10-26T05:46:12.375Z,0.00
2022-10-26T05:47:12.541Z,4.00
2022-10-26T05:48:12.689Z,4.00
2022-10-26T05:49:12.821Z,4.00
2022-10-26T05:50:12.895Z,0.00
2022-10-26T05:51:13.049Z,4.00
2022-10-26T05:52:13.890Z,4.00
2022-10-26T05:53:13.280Z,4.00
2022-10-26T05:54:14.192Z,8.00
2022-10-26T05:55:13.564Z,8.00
2022-10-26T05:56:14.310Z,8.00
2022-10-26T05:57:13.776Z,12.00
2022-10-26T05:58:13.916Z,12.00
2022-10-26T05:59:14.090Z,16.00
2022-10-26T06:00:14.200Z,16.00
2022-10-26T06:01:14.482Z,20.00
2022-10-26T06:02:14.567Z,20.00
2022-10-26T06:03:14.634Z,24.00
2022-10-26T06:04:14.766Z,28.00
2022-10-26T06:05:14.897Z,28.00
2022-10-26T06:06:15.029Z,36.00
2022-10-26T06:07:15.169Z,40.00
2022-10-26T06:08:15.287Z,44.00
2022-10-26T06:09:15.437Z,48.00
2022-10-26T06:10:15.566Z,56.00
2022-10-26T06:11:15.707Z,64.00
2022-10-26T06:12:19.275Z,72.00
2022-10-26T06:13:16.028Z,76.00
2022-10-26T06:14:16.138Z,84.00
2022-10-26T06:15:16.250Z,88.00
2022-10-26T06:16:16.348Z,96.00
2022-10-26T06:17:16.486Z,104.00
2022-10-26T06:18:16.623Z,112.00
2022-10-26T06:19:16.784Z,124.00
2022-10-26T06:20:16.878Z,140.00
2022-10-26T06:21:17.006Z,152.00
2022-10-26T06:22:17.163Z,172.00
2022-10-26T06:23:17.256Z,192.00
2022-10-26T06:24:17.429Z,212.00
2022-10-26T06:25:17.519Z,232.00
2022-10-26T06:26:17.615Z,256.00
2022-10-26T06:27:19.553Z,276.00
2022-10-26T06:28:17.864Z,292.00
2022-10-26T06:29:18.072Z,312.00
2022-10-26T06:30:18.143Z,332.00
2022-10-26T06:31:18.244Z,348.00
2022-10-26T06:32:18.393Z,364.00
2022-10-26T06:33:29.016Z,384.00
2022-10-26T06:34:19.645Z,404.00
2022-10-26T06:35:18.784Z,412.00
2022-10-26T06:36:18.885Z,416.00
2022-10-26T06:37:19.032Z,424.00
2022-10-26T06:38:19.173Z,444.00
2022-10-26T06:39:19.316Z,468.00
2022-10-26T06:40:19.463Z,488.00
2022-10-26T06:41:19.580Z,484.00
2022-10-26T06:42:19.685Z,484.00
2022-10-26T06:43:19.824Z,492.00
2022-10-26T06:44:19.953Z,500.00
2022-10-26T06:45:20.110Z,516.00
2022-10-26T06:46:20.196Z,528.00
2022-10-26T06:47:23.432Z,552.00
2022-10-26T06:48:20.445Z,588.00
2022-10-26T06:49:20.591Z,628.00
2022-10-26T06:50:21.483Z,648.00
2022-10-26T06:51:20.864Z,660.00
2022-10-26T06:52:21.002Z,688.00
2022-10-26T06:53:21.154Z,736.00
2022-10-26T06:54:21.255Z,808.00
2022-10-26T06:55:21.421Z,876.00
2022-10-26T06:56:21.494Z,944.00
2022-10-26T06:57:21.649Z,988.00
2022-10-26T06:58:23.203Z,1028.00
2022-10-26T06:59:21.902Z,1056.00
2022-10-26T07:00:22.795Z,1084.00
2022-10-26T07:01:22.223Z,1120.00
2022-10-26T07:02:22.389Z,1172.00
2022-10-26T07:03:22.395Z,1224.00
2022-10-26T07:04:22.530Z,1280.00
2022-10-26T07:05:22.726Z,1328.00
2022-10-26T07:06:22.795Z,1368.00
2022-10-26T07:07:22.944Z,1388.00
2022-10-26T07:08:23.072Z,1388.00
2022-10-26T07:09:23.160Z,1388.00
2022-10-26T07:10:23.307Z,1400.00
2022-10-26T07:11:24.205Z,1420.00
2022-10-26T07:12:23.585Z,1460.00
2022-10-26T07:13:23.751Z,1520.00
2022-10-26T07:14:23.823Z,1604.00
2022-10-26T07:15:24.011Z,1696.00
2022-10-26T07:16:24.073Z,1768.00
2022-10-26T07:17:24.243Z,1836.00
2022-10-26T07:18:24.339Z,1884.00
2022-10-26T07:19:24.461Z,1920.00
2022-10-26T07:20:24.701Z,1956.00
2022-10-26T07:21:24.739Z,1996.00
2022-10-26T07:22:24.840Z,2048.00
2022-10-26T07:23:25.027Z,2124.00
2022-10-26T07:24:25.113Z,2208.00
2022-10-26T07:25:25.241Z,2276.00
2022-10-26T07:26:25.392Z,2316.00
2022-10-26T07:27:25.550Z,2320.00
2022-10-26T07:28:25.714Z,2296.00
2022-10-26T07:29:25.842Z,2284.00
2022-10-26T07:30:25.933Z,2268.00
2022-10-26T07:31:26.050Z,2248.00
2022-10-26T07:32:26.185Z,2208.00
2022-10-26T07:33:26.274Z,2140.00
2022-10-26T07:34:26.421Z,2108.00
2022-10-26T07:35:26.540Z,2128.00
2022-10-26T07:36:26.642Z,2160.00
2022-10-26T07:37:26.795Z,2172.00
2022-10-26T07:38:26.915Z,2168.00
2022-10-26T07:39:27.025Z,2192.00
2022-10-26T07:40:27.131Z,2256.00
2022-10-26T07:41:27.281Z,2336.00
2022-10-26T07:42:27.431Z,2420.00
2022-10-26T07:43:27.578Z,2528.00
2022-10-26T07:44:27.658Z,2636.00
2022-10-26T07:45:27.812Z,2752.00
2022-10-26T07:46:27.940Z,2796.00
2022-10-26T07:47:28.652Z,2796.00
2022-10-26T07:48:28.172Z,2724.00
2022-10-26T07:49:28.259Z,2704.00
2022-10-26T07:50:28.430Z,2772.00
2022-10-26T07:51:28.532Z,2916.00
2022-10-26T07:52:28.631Z,3044.00
2022-10-26T07:53:28.751Z,3188.00
2022-10-26T07:54:28.878Z,3336.00
2022-10-26T07:55:28.973Z,3380.00
2022-10-26T07:56:29.092Z,3344.00
2022-10-26T07:57:29.229Z,3348.00
2022-10-26T07:58:29.345Z,3388.00
2022-10-26T07:59:29.467Z,3444.00
2022-10-26T08:00:29.642Z,3468.00
2022-10-26T08:01:29.771Z,3540.00
2022-10-26T08:02:30.548Z,3584.00
2022-10-26T08:03:29.942Z,3628.00
2022-10-26T08:04:30.063Z,3672.00
2022-10-26T08:06:30.309Z,3732.00
2022-10-26T08:07:30.450Z,3788.00
2022-10-26T08:08:30.542Z,3892.00
2022-10-26T08:09:30.656Z,4128.00
2022-10-26T08:10:30.821Z,4224.00
2022-10-26T08:11:30.897Z,4224.00
2022-10-26T08:12:31.059Z,4176.00
2022-10-26T08:13:31.203Z,4084.00
2022-10-26T08:14:31.766Z,4068.00
2022-10-26T08:15:31.398Z,4044.00
2022-10-26T08:16:31.532Z,4304.00
2022-10-26T08:17:31.740Z,3896.00
2022-10-26T08:18:31.812Z,4036.00
2022-10-26T08:19:31.950Z,3988.00
2022-10-26T08:20:32.118Z,3880.00
2022-10-26T08:21:40.394Z,3976.00
2022-10-26T08:22:33.362Z,4088.00
2022-10-26T08:23:32.427Z,3960.00
2022-10-26T08:24:32.600Z,3872.00
2022-10-26T08:25:32.687Z,3852.00
2022-10-26T08:26:32.798Z,3928.00
2022-10-26T08:27:32.931Z,3980.00
2022-10-26T08:28:33.044Z,4044.00
2022-10-26T08:29:33.153Z,4120.00
2022-10-26T08:31:33.394Z,4284.00
2022-10-26T08:32:33.509Z,4348.00
2022-10-26T08:33:33.608Z,4548.00
2022-10-26T08:34:33.708Z,4760.00
2022-10-26T08:35:33.848Z,5008.00
2022-10-26T08:36:34.008Z,5272.00
2022-10-26T08:37:34.244Z,5616.00
2022-10-26T08:38:34.227Z,6084.00
2022-10-26T08:39:34.355Z,6688.00
2022-10-26T08:40:34.473Z,7248.00
2022-10-26T08:41:34.561Z,7676.00
2022-10-26T08:42:34.709Z,8084.00
2022-10-26T08:43:34.801Z,8408.00
2022-10-26T08:44:34.971Z,8736.00
2022-10-26T08:45:37.119Z,8624.00
2022-10-26T08:46:35.189Z,8364.00
2022-10-26T08:47:35.330Z,8444.00
2022-10-26T08:48:35.418Z,8564.00
2022-10-26T08:49:35.540Z,8820.00
2022-10-26T08:50:39.304Z,8912.00
2022-10-26T08:51:36.792Z,9252.00
2022-10-26T08:52:35.939Z,9604.00
2022-10-26T08:53:36.078Z,13832.00
2022-10-26T08:54:36.157Z,13516.00
2022-10-26T08:55:36.293Z,11248.00
2022-10-26T08:56:36.387Z,12232.00
2022-10-26T08:57:36.508Z,13688.00
2022-10-26T08:58:36.611Z,25056.00
2022-10-26T08:59:36.766Z,14464.00
2022-10-26T09:00:37.097Z,23424.00
2022-10-26T09:01:37.125Z,27328.00
2022-10-26T09:02:37.149Z,36352.00
2022-10-26T09:03:37.246Z,30560.00
2022-10-26T09:04:37.399Z,22912.00
2022-10-26T09:05:37.519Z,18944.00
2022-10-26T09:06:37.710Z,18720.00
2022-10-26T09:07:37.841Z,22528.00
2022-10-26T09:08:37.878Z,32768.00
2022-10-26T09:09:37.978Z,32160.00
2022-10-26T09:10:38.150Z,27424.00
2022-10-26T09:11:38.229Z,27136.00
2022-10-26T09:12:38.379Z,30688.00
2022-10-26T09:13:38.479Z,32320.00
2022-10-26T09:14:38.640Z,33984.00
2022-10-26T09:15:38.762Z,35136.00
2022-10-26T09:16:38.869Z,31872.00
2022-10-26T09:17:39.008Z,28800.00
2022-10-26T09:18:39.879Z,31936.00
2022-10-26T09:19:39.371Z,32128.00
2022-10-26T09:20:39.368Z,34560.00
2022-10-26T09:21:39.456Z,34016.00
2022-10-26T09:22:39.610Z,35584.00
2022-10-26T09:23:39.802Z,34272.00
2022-10-26T09:24:39.848Z,34528.00
2022-10-26T09:25:39.990Z,34720.00
2022-10-26T09:26:40.083Z,36384.00
2022-10-26T09:27:40.203Z,41088.00
2022-10-26T09:28:40.322Z,43424.00
2022-10-26T09:29:41.143Z,37632.00
2022-10-26T09:30:41.250Z,29856.00
2022-10-26T09:31:43.209Z,48640.00
2022-10-26T09:32:40.808Z,29152.00
2022-10-26T09:33:40.903Z,43360.00
2022-10-26T09:34:41.050Z,29088.00
2022-10-26T09:35:41.212Z,17280.00
2022-10-26T09:36:41.259Z,39456.00
2022-10-26T09:37:41.372Z,15000.00
2022-10-26T09:38:41.512Z,19456.00
2022-10-26T09:39:41.582Z,14496.00
2022-10-26T09:40:41.732Z,11112.00
2022-10-26T09:41:42.693Z,10276.00
2022-10-26T09:42:43.453Z,15016.00
2022-10-26T09:43:42.131Z,12532.00
2022-10-26T09:44:42.327Z,13660.00
2022-10-26T09:45:42.342Z,14932.00
2022-10-26T09:46:42.551Z,15256.00
2022-10-26T09:47:42.604Z,14980.00
2022-10-26T09:48:42.693Z,13860.00
2022-10-26T09:49:42.837Z,13572.00
2022-10-26T09:50:42.924Z,14164.00
2022-10-26T09:51:43.035Z,15328.00
2022-10-26T09:52:43.245Z,13564.00
2022-10-26T09:53:43.297Z,14156.00
2022-10-26T09:54:43.443Z,15276.00
2022-10-26T09:55:43.572Z,16992.00
2022-10-26T09:56:43.705Z,22080.00
2022-10-26T09:57:43.808Z,19552.00
2022-10-26T09:58:43.900Z,16416.00
2022-10-26T09:59:44.012Z,14208.00
2022-10-26T10:00:44.173Z,12436.00
2022-10-26T10:01:44.311Z,11320.00
2022-10-26T10:02:44.486Z,11220.00
2022-10-26T10:03:45.208Z,11416.00
2022-10-26T10:04:44.724Z,10924.00
2022-10-26T10:05:53.041Z,10804.00
2022-10-26T10:06:46.525Z,11484.00
2022-10-26T10:07:45.054Z,12692.00
2022-10-26T10:08:45.292Z,13124.00
2022-10-26T10:09:45.283Z,14640.00
2022-10-26T10:10:45.404Z,16224.00
2022-10-26T10:11:45.520Z,18048.00
2022-10-26T10:12:45.623Z,14220.00
2022-10-26T10:13:45.776Z,13936.00
2022-10-26T10:14:45.897Z,14460.00
2022-10-26T10:15:45.996Z,14408.00
2022-10-26T10:16:46.171Z,13996.00
2022-10-26T10:17:48.406Z,13312.00
2022-10-26T10:18:46.378Z,12932.00
2022-10-26T10:19:46.474Z,13852.00
2022-10-26T10:20:46.636Z,16992.00
2022-10-26T10:21:46.776Z,29184.00
2022-10-26T10:22:46.865Z,31072.00
2022-10-26T10:23:47.045Z,25760.00
2022-10-26T10:24:47.263Z,19200.00
2022-10-26T10:25:47.201Z,20224.00
2022-10-26T10:26:47.365Z,51488.00
2022-10-26T10:27:47.711Z,30496.00
2022-10-26T10:28:47.577Z,32288.00
2022-10-26T10:29:47.710Z,56608.00
2022-10-26T10:30:47.806Z,68160.00
2022-10-26T10:31:47.918Z,67392.00
2022-10-26T10:32:48.252Z,67680.00
2022-10-26T10:33:48.177Z,64672.00
2022-10-26T10:34:48.359Z,68160.00
2022-10-26T10:35:49.381Z,71360.00
2022-10-26T10:36:48.578Z,69248.00
2022-10-26T10:37:48.797Z,70784.00
2022-10-26T10:38:48.850Z,66560.00
2022-10-26T10:39:48.959Z,66080.00
2022-10-26T10:40:49.106Z,62624.00
2022-10-26T10:41:49.301Z,63072.00
2022-10-26T10:42:49.625Z,70496.00
2022-10-26T10:43:49.519Z,67744.00
2022-10-26T10:44:49.597Z,64032.00
2022-10-26T10:45:49.748Z,68320.00
2022-10-26T10:46:49.867Z,71168.00
2022-10-26T10:47:50.550Z,66304.00
2022-10-26T10:48:50.126Z,67392.00
2022-10-26T10:49:50.242Z,68768.00
2022-10-26T10:50:50.360Z,65408.00
2022-10-26T10:51:50.483Z,67936.00
2022-10-26T10:52:50.930Z,69088.00
2022-10-26T10:53:50.710Z,70880.00
2022-10-26T10:54:51.168Z,68160.00
2022-10-26T10:56:51.066Z,62880.00
2022-10-26T10:57:51.574Z,69376.00
2022-10-26T10:58:51.301Z,19296.00
2022-10-26T10:59:51.510Z,20448.00
2022-10-26T11:00:51.591Z,18592.00
2022-10-26T11:01:51.794Z,19744.00
2022-10-26T11:02:51.825Z,36736.00
2022-10-26T11:03:51.930Z,27232.00
2022-10-26T11:04:52.074Z,68096.00
2022-10-26T11:05:52.188Z,69184.00
2022-10-26T11:06:52.289Z,69408.00
2022-10-26T11:07:52.636Z,71584.00
2022-10-26T11:08:52.512Z,62944.00
2022-10-26T11:10:52.794Z,68448.00
2022-10-26T11:11:52.964Z,56672.00
2022-10-26T11:12:53.090Z,43392.00
2022-10-26T11:13:53.190Z,47296.00
2022-10-26T11:14:53.301Z,52576.00
2022-10-26T11:15:53.413Z,60448.00
2022-10-26T11:16:53.524Z,56544.00
2022-10-26T11:17:54.393Z,59776.00
2022-10-26T11:18:53.780Z,64992.00
2022-10-26T11:19:53.919Z,64192.00
2022-10-26T11:20:54.097Z,60160.00
2022-10-26T11:21:54.201Z,58464.00
2022-10-26T11:22:54.598Z,70240.00
2022-10-26T11:23:54.459Z,68928.00
2022-10-26T11:24:54.565Z,68704.00
2022-10-26T11:25:54.759Z,66880.00
2022-10-26T11:26:54.771Z,63392.00
2022-10-26T11:27:54.997Z,57536.00
2022-10-26T11:28:55.089Z,51776.00
2022-10-26T11:29:55.175Z,56896.00
2022-10-26T11:30:55.281Z,56864.00
2022-10-26T11:31:55.408Z,55488.00
2022-10-26T11:32:55.525Z,58752.00
2022-10-26T11:34:55.745Z,52896.00
2022-10-26T11:35:55.892Z,64896.00
2022-10-26T11:36:56.136Z,71616.00
2022-10-26T11:37:56.166Z,69600.00
2022-10-26T11:38:57.605Z,64512.00
2022-10-26T11:39:56.365Z,62528.00
2022-10-26T11:40:56.454Z,62432.00
2022-10-26T11:41:56.614Z,66208.00
2022-10-26T11:42:56.765Z,66016.00
2022-10-26T11:43:56.857Z,64480.00
2022-10-26T11:44:57.007Z,63040.00
2022-10-26T11:45:57.108Z,58368.00
2022-10-26T11:46:57.220Z,61536.00
2022-10-26T11:47:57.375Z,51872.00
2022-10-26T11:48:57.478Z,54848.00
2022-10-26T11:49:57.574Z,55392.00
2022-10-26T11:50:57.688Z,65952.00
2022-10-26T11:51:57.796Z,60864.00
2022-10-26T11:52:57.914Z,59424.00
2022-10-26T11:53:58.014Z,63488.00
2022-10-26T11:54:58.128Z,66720.00
2022-10-26T11:55:58.255Z,66496.00
2022-10-26T11:56:58.408Z,66432.00
2022-10-26T11:57:58.515Z,68128.00
2022-10-26T11:58:58.636Z,74272.00
2022-10-26T11:59:58.731Z,73888.00
2022-10-26T12:00:58.840Z,72832.00
2022-10-26T12:01:58.995Z,66240.00
2022-10-26T12:02:59.131Z,67264.00
2022-10-26T12:03:59.241Z,74848.00
2022-10-26T12:04:59.327Z,57824.00
2022-10-26T12:05:59.487Z,68544.00
2022-10-26T12:06:59.597Z,68384.00
2022-10-26T12:07:59.755Z,71520.00
2022-10-26T12:08:59.958Z,75680.00
2022-10-26T12:10:00.022Z,69664.00
2022-10-26T12:11:00.172Z,69248.00
2022-10-26T12:12:00.269Z,68128.00
2022-10-26T12:13:00.392Z,72480.00
2022-10-26T12:14:00.572Z,73120.00
2022-10-26T12:15:00.658Z,71392.00
2022-10-26T12:16:04.708Z,72480.00
2022-10-26T12:17:00.984Z,79264.00
2022-10-26T12:18:01.032Z,75488.00
2022-10-26T12:19:01.158Z,75264.00
2022-10-26T12:20:01.430Z,74464.00
2022-10-26T12:21:01.415Z,74720.00
2022-10-26T12:22:01.525Z,81344.00
2022-10-26T12:23:01.630Z,80448.00
2022-10-26T12:24:01.790Z,76544.00
2022-10-26T12:25:01.898Z,75136.00
2022-10-26T12:26:02.019Z,72864.00
2022-10-26T12:27:02.117Z,72480.00
2022-10-26T12:28:02.269Z,70848.00
2022-10-26T12:29:02.445Z,72480.00
2022-10-26T12:30:02.519Z,68800.00
2022-10-26T12:31:02.629Z,75392.00
2022-10-26T12:32:02.730Z,78688.00
2022-10-26T12:33:02.842Z,77248.00
2022-10-26T12:34:02.964Z,77696.00
2022-10-26T12:35:03.098Z,79424.00
2022-10-26T12:36:03.241Z,77248.00
2022-10-26T12:37:03.347Z,75616.00
2022-10-26T12:38:03.452Z,73120.00
2022-10-26T12:39:03.590Z,75488.00
2022-10-26T12:40:03.770Z,72000.00
2022-10-26T12:41:03.881Z,67904.00